createdAt,value
2016-08-23T00:00:11.284Z,1023.73
2016-08-23T00:01:11.900Z,1023.73
2016-08-23T00:02:12.518Z,1023.67
2016-08-23T00:03:13.125Z,1023.68
2016-08-23T00:04:13.744Z,1023.66
2016-08-23T00:05:14.379Z,1023.66
2016-08-23T00:06:14.988Z,1023.66
2016-08-23T00:07:15.601Z,1023.61
2016-08-23T00:08:16.213Z,1023.61
2016-08-23T00:09:16.832Z,1023.61
2016-08-23T00:10:17.455Z,1023.63
2016-08-23T00:11:18.077Z,1023.7
2016-08-23T00:12:18.698Z,1023.65
2016-08-23T00:13:19.322Z,1023.67
2016-08-23T00:14:19.942Z,1023.66
2016-08-23T00:15:20.563Z,1023.61
2016-08-23T00:16:21.185Z,1023.63
2016-08-23T00:17:21.818Z,1023.64
2016-08-23T00:18:22.432Z,1023.64
2016-08-23T00:19:23.049Z,1023.57
2016-08-23T00:20:23.666Z,1023.58
2016-08-23T00:21:24.292Z,1023.6
2016-08-23T00:22:24.928Z,1023.66
2016-08-23T00:23:25.549Z,1023.65
2016-08-23T00:24:26.164Z,1023.64
2016-08-23T00:25:26.785Z,1023.66
2016-08-23T00:26:27.401Z,1023.67
2016-08-23T00:27:28.028Z,1023.66
2016-08-23T00:28:28.649Z,1023.7
2016-08-23T00:29:29.268Z,1023.67
2016-08-23T00:30:29.890Z,1023.66
2016-08-23T00:31:30.523Z,1023.68
2016-08-23T00:32:31.131Z,1023.68
2016-08-23T00:33:31.750Z,1023.68
2016-08-23T00:34:32.377Z,1023.7
2016-08-23T00:35:32.992Z,1023.66
2016-08-23T00:36:33.604Z,1023.67
2016-08-23T00:37:34.222Z,1023.68
2016-08-23T00:38:34.837Z,1023.7
2016-08-23T00:39:35.461Z,1023.67
2016-08-23T00:40:36.082Z,1023.65
2016-08-23T00:41:36.698Z,1023.63
2016-08-23T00:42:37.324Z,1023.63
2016-08-23T00:43:37.945Z,1023.65
2016-08-23T00:44:38.571Z,1023.62
2016-08-23T00:45:39.186Z,1023.63
2016-08-23T00:46:39.809Z,1023.64
2016-08-23T00:47:40.433Z,1023.62
2016-08-23T00:48:41.053Z,1023.66
2016-08-23T00:49:41.677Z,1023.66
2016-08-23T00:50:42.298Z,1023.67
2016-08-23T00:51:42.918Z,1023.68
2016-08-23T00:52:43.539Z,1023.68
2016-08-23T00:53:44.211Z,1023.69
2016-08-23T00:54:44.831Z,1023.7
2016-08-23T00:55:45.461Z,1023.65
2016-08-23T00:56:46.085Z,1023.71
2016-08-23T00:57:46.689Z,1023.71
2016-08-23T00:58:47.308Z,1023.69
2016-08-23T00:59:47.933Z,1023.66
2016-08-23T01:00:48.538Z,1023.7
2016-08-23T01:01:49.158Z,1023.7
2016-08-23T01:02:49.775Z,1023.68
2016-08-23T01:03:50.386Z,1023.69
2016-08-23T01:04:51.002Z,1023.69
2016-08-23T01:05:51.636Z,1023.65
2016-08-23T01:06:52.254Z,1023.7
2016-08-23T01:07:52.873Z,1023.66
2016-08-23T01:08:53.493Z,1023.65
2016-08-23T01:09:54.108Z,1023.66
2016-08-23T01:10:54.733Z,1023.7
2016-08-23T01:11:55.356Z,1023.69
2016-08-23T01:12:55.976Z,1023.67
2016-08-23T01:13:56.596Z,1023.65
2016-08-23T01:14:57.226Z,1023.67
2016-08-23T01:15:57.847Z,1023.61
2016-08-23T01:16:58.462Z,1023.64
2016-08-23T01:17:59.081Z,1023.64
2016-08-23T01:18:59.705Z,1023.65
2016-08-23T01:20:00.345Z,1023.62
2016-08-23T01:21:00.963Z,1023.61
2016-08-23T01:22:01.581Z,1023.61
2016-08-23T01:23:02.204Z,1023.59
2016-08-23T01:24:02.841Z,1023.64
2016-08-23T01:25:03.493Z,1023.62
2016-08-23T01:26:04.114Z,1023.64
2016-08-23T01:27:04.734Z,1023.61
2016-08-23T01:28:05.353Z,1023.58
2016-08-23T01:29:05.978Z,1023.59
2016-08-23T01:30:06.596Z,1023.59
2016-08-23T01:31:07.220Z,1023.56
2016-08-23T01:32:07.853Z,1023.57
2016-08-23T01:33:08.466Z,1023.55
2016-08-23T01:34:09.085Z,1023.51
2016-08-23T01:35:09.702Z,1023.56
2016-08-23T01:36:10.325Z,1023.57
2016-08-23T01:37:10.944Z,1023.53
2016-08-23T01:38:11.565Z,1023.53
2016-08-23T01:39:12.186Z,1023.56
2016-08-23T01:40:12.807Z,1023.59
2016-08-23T01:41:13.426Z,1023.6
2016-08-23T01:42:14.052Z,1023.62
2016-08-23T01:43:14.680Z,1023.62
2016-08-23T01:44:15.305Z,1023.66
2016-08-23T01:45:15.926Z,1023.69
2016-08-23T01:46:16.558Z,1023.67
2016-08-23T01:47:17.200Z,1023.68
2016-08-23T01:48:17.819Z,1023.64
2016-08-23T01:49:18.442Z,1023.7
2016-08-23T01:50:19.067Z,1023.7
2016-08-23T01:51:19.684Z,1023.67
2016-08-23T01:52:20.305Z,1023.72
2016-08-23T01:53:20.929Z,1023.68
2016-08-23T01:54:21.551Z,1023.71
2016-08-23T01:55:22.162Z,1023.71
2016-08-23T01:56:22.786Z,1023.67
2016-08-23T01:57:23.406Z,1023.67
2016-08-23T01:58:24.029Z,1023.66
2016-08-23T01:59:24.651Z,1023.68
2016-08-23T02:00:25.270Z,1023.67
2016-08-23T02:01:25.895Z,1023.63
2016-08-23T02:02:26.538Z,1023.66
2016-08-23T02:03:27.196Z,1023.67
2016-08-23T02:04:27.824Z,1023.68
2016-08-23T02:05:28.450Z,1023.69
2016-08-23T02:06:29.070Z,1023.71
2016-08-23T02:07:29.701Z,1023.7
2016-08-23T02:08:30.350Z,1023.7
2016-08-23T02:09:30.972Z,1023.68
2016-08-23T02:10:31.588Z,1023.67
2016-08-23T02:11:32.210Z,1023.69
2016-08-23T02:12:32.824Z,1023.71
2016-08-23T02:13:33.448Z,1023.68
2016-08-23T02:14:34.068Z,1023.68
2016-08-23T02:15:34.693Z,1023.69
2016-08-23T02:16:35.308Z,1023.75
2016-08-23T02:17:35.928Z,1023.7
2016-08-23T02:18:36.551Z,1023.72
2016-08-23T02:19:37.171Z,1023.69
2016-08-23T02:20:37.796Z,1023.77
2016-08-23T02:21:38.423Z,1023.76
2016-08-23T02:22:39.054Z,1023.73
2016-08-23T02:23:39.670Z,1023.69
2016-08-23T02:24:40.290Z,1023.74
2016-08-23T02:25:40.911Z,1023.78
2016-08-23T02:26:41.535Z,1023.77
2016-08-23T02:27:42.152Z,1023.72
2016-08-23T02:28:42.775Z,1023.75
2016-08-23T02:29:43.390Z,1023.75
2016-08-23T02:30:44.009Z,1023.77
2016-08-23T02:31:44.628Z,1023.75
2016-08-23T02:32:45.249Z,1023.78
2016-08-23T02:33:45.870Z,1023.81
2016-08-23T02:34:46.488Z,1023.83
2016-08-23T02:35:47.106Z,1023.79
2016-08-23T02:36:47.729Z,1023.81
2016-08-23T02:37:48.357Z,1023.78
2016-08-23T02:38:48.979Z,1023.79
2016-08-23T02:39:49.593Z,1023.81
2016-08-23T02:40:50.220Z,1023.81
2016-08-23T02:41:50.840Z,1023.81
2016-08-23T02:42:51.460Z,1023.81
2016-08-23T02:43:52.084Z,1023.83
2016-08-23T02:44:52.697Z,1023.78
2016-08-23T02:45:53.316Z,1023.79
2016-08-23T02:46:53.938Z,1023.78
2016-08-23T02:47:54.560Z,1023.75
2016-08-23T02:48:55.180Z,1023.79
2016-08-23T02:49:55.799Z,1023.78
2016-08-23T02:50:56.428Z,1023.79
2016-08-23T02:51:57.072Z,1023.8
2016-08-23T02:52:57.697Z,1023.83
2016-08-23T02:53:58.312Z,1023.77
2016-08-23T02:54:58.933Z,1023.76
2016-08-23T02:55:59.552Z,1023.78
2016-08-23T02:57:01.105Z,1023.75
2016-08-23T02:58:02.295Z,1023.76
2016-08-23T02:59:02.964Z,1023.77
2016-08-23T03:00:03.875Z,1023.74
2016-08-23T03:01:04.522Z,1023.74
2016-08-23T03:02:05.180Z,1023.79
2016-08-23T03:03:06.541Z,1023.75
2016-08-23T03:04:07.162Z,1023.77
2016-08-23T03:05:08.523Z,1023.78
2016-08-23T03:06:09.529Z,1023.78
2016-08-23T03:07:10.152Z,1023.77
2016-08-23T03:08:10.899Z,1023.79
2016-08-23T03:09:11.573Z,1023.79
2016-08-23T03:10:12.201Z,1023.83
2016-08-23T03:11:12.880Z,1023.85
2016-08-23T03:12:13.538Z,1023.87
2016-08-23T03:13:14.172Z,1023.86
2016-08-23T03:14:14.857Z,1023.87
2016-08-23T03:15:15.586Z,1023.91
2016-08-23T03:16:16.202Z,1023.88
2016-08-23T03:17:16.826Z,1023.85
2016-08-23T03:18:17.460Z,1023.88
2016-08-23T03:19:18.103Z,1023.9
2016-08-23T03:20:18.748Z,1023.86
2016-08-23T03:21:19.373Z,1023.88
2016-08-23T03:22:19.996Z,1023.8
2016-08-23T03:23:20.618Z,1023.85
2016-08-23T03:24:21.237Z,1023.83
2016-08-23T03:25:21.862Z,1023.84
2016-08-23T03:26:22.483Z,1023.85
2016-08-23T03:27:23.107Z,1023.86
2016-08-23T03:28:23.729Z,1023.89
2016-08-23T03:29:24.369Z,1023.87
2016-08-23T03:30:24.980Z,1023.85
2016-08-23T03:31:25.606Z,1023.89
2016-08-23T03:32:26.247Z,1023.85
2016-08-23T03:33:26.864Z,1023.87
2016-08-23T03:34:27.482Z,1023.87
2016-08-23T03:35:28.109Z,1023.87
2016-08-23T03:36:28.734Z,1023.94
2016-08-23T03:37:29.353Z,1023.94
2016-08-23T03:38:29.971Z,1023.9
2016-08-23T03:39:30.599Z,1023.84
2016-08-23T03:40:31.222Z,1023.79
2016-08-23T03:41:31.861Z,1023.77
2016-08-23T03:42:32.489Z,1023.77
2016-08-23T03:43:33.125Z,1023.84
2016-08-23T03:44:33.746Z,1023.83
2016-08-23T03:45:34.370Z,1023.85
2016-08-23T03:46:34.994Z,1023.8
2016-08-23T03:47:35.610Z,1023.84
2016-08-23T03:48:36.231Z,1023.87
2016-08-23T03:49:36.852Z,1023.86
2016-08-23T03:50:37.478Z,1023.9
2016-08-23T03:51:38.099Z,1023.88
2016-08-23T03:52:38.717Z,1023.86
2016-08-23T03:53:39.336Z,1023.89
2016-08-23T03:54:39.957Z,1023.93
2016-08-23T03:55:40.579Z,1024.01
2016-08-23T03:56:41.198Z,1024.01
2016-08-23T03:57:41.858Z,1023.99
2016-08-23T03:58:42.482Z,1023.96
2016-08-23T03:59:43.104Z,1024
2016-08-23T04:00:43.723Z,1024.03
2016-08-23T04:01:44.347Z,1024.04
2016-08-23T04:02:44.967Z,1024.07
2016-08-23T04:03:45.589Z,1024.05
2016-08-23T04:04:46.226Z,1024.05
2016-08-23T04:05:46.839Z,1024.05
2016-08-23T04:06:47.460Z,1024.05
2016-08-23T04:07:48.082Z,1024.01
2016-08-23T04:08:48.696Z,1024.1
2016-08-23T04:09:49.322Z,1024.1
2016-08-23T04:10:49.942Z,1024.12
2016-08-23T04:11:50.570Z,1024.17
2016-08-23T04:12:51.189Z,1024.2
2016-08-23T04:13:51.806Z,1024.18
2016-08-23T04:14:52.428Z,1024.18
2016-08-23T04:15:53.047Z,1024.2
2016-08-23T04:16:53.667Z,1024.18
2016-08-23T04:17:54.287Z,1024.23
2016-08-23T04:18:54.913Z,1024.26
2016-08-23T04:19:55.530Z,1024.3
2016-08-23T04:20:56.150Z,1024.33
2016-08-23T04:21:56.773Z,1024.3
2016-08-23T04:22:57.393Z,1024.31
2016-08-23T04:23:58.014Z,1024.33
2016-08-23T04:24:58.631Z,1024.31
2016-08-23T04:25:59.254Z,1024.34
2016-08-23T04:26:59.881Z,1024.37
2016-08-23T04:28:00.513Z,1024.39
2016-08-23T04:29:01.134Z,1024.43
2016-08-23T04:30:01.761Z,1024.42
2016-08-23T04:31:02.379Z,1024.4
2016-08-23T04:32:02.997Z,1024.37
2016-08-23T04:33:03.622Z,1024.39
2016-08-23T04:34:04.242Z,1024.38
2016-08-23T04:35:04.863Z,1024.38
2016-08-23T04:36:05.495Z,1024.4
2016-08-23T04:37:06.133Z,1024.36
2016-08-23T04:38:06.758Z,1024.43
2016-08-23T04:39:07.399Z,1024.43
2016-08-23T04:40:08.022Z,1024.45
2016-08-23T04:41:08.660Z,1024.47
2016-08-23T04:42:09.317Z,1024.46
2016-08-23T04:43:09.937Z,1024.47
2016-08-23T04:44:10.551Z,1024.53
2016-08-23T04:45:11.165Z,1024.52
2016-08-23T04:46:11.788Z,1024.52
2016-08-23T04:47:12.415Z,1024.5
2016-08-23T04:48:13.051Z,1024.49
2016-08-23T04:49:13.678Z,1024.54
2016-08-23T04:50:14.310Z,1024.55
2016-08-23T04:51:14.922Z,1024.55
2016-08-23T04:52:15.534Z,1024.57
2016-08-23T04:53:16.151Z,1024.59
2016-08-23T04:54:16.776Z,1024.61
2016-08-23T04:55:17.402Z,1024.58
2016-08-23T04:56:18.033Z,1024.6
2016-08-23T04:57:18.655Z,1024.64
2016-08-23T04:58:19.273Z,1024.64
2016-08-23T04:59:19.891Z,1024.66
2016-08-23T05:00:20.510Z,1024.66
2016-08-23T05:01:21.131Z,1024.66
2016-08-23T05:02:21.744Z,1024.66
2016-08-23T05:03:22.362Z,1024.64
2016-08-23T05:04:22.986Z,1024.66
2016-08-23T05:05:23.614Z,1024.69
2016-08-23T05:06:24.239Z,1024.76
2016-08-23T05:07:24.854Z,1024.73
2016-08-23T05:08:25.465Z,1024.76
2016-08-23T05:09:26.090Z,1024.74
2016-08-23T05:10:26.711Z,1024.74
2016-08-23T05:11:27.332Z,1024.81
2016-08-23T05:12:27.959Z,1024.77
2016-08-23T05:13:28.578Z,1024.86
2016-08-23T05:14:29.195Z,1024.8
2016-08-23T05:15:29.817Z,1024.84
2016-08-23T05:16:30.439Z,1024.84
2016-08-23T05:17:31.064Z,1024.79
2016-08-23T05:18:31.715Z,1024.88
2016-08-23T05:19:32.335Z,1024.9
2016-08-23T05:20:32.958Z,1024.87
2016-08-23T05:21:33.581Z,1024.89
2016-08-23T05:22:34.210Z,1024.95
2016-08-23T05:23:34.857Z,1024.92
2016-08-23T05:24:35.482Z,1024.89
2016-08-23T05:25:36.102Z,1024.91
2016-08-23T05:26:36.722Z,1024.93
2016-08-23T05:27:37.348Z,1024.89
2016-08-23T05:28:37.965Z,1024.93
2016-08-23T05:29:38.593Z,1024.92
2016-08-23T05:30:39.219Z,1024.92
2016-08-23T05:31:39.847Z,1024.95
2016-08-23T05:32:40.466Z,1024.95
2016-08-23T05:33:41.086Z,1024.95
2016-08-23T05:34:41.702Z,1024.98
2016-08-23T05:35:42.326Z,1024.91
2016-08-23T05:36:42.947Z,1024.96
2016-08-23T05:37:43.571Z,1024.96
2016-08-23T05:38:44.187Z,1024.97
2016-08-23T05:39:44.812Z,1024.9
2016-08-23T05:40:45.432Z,1024.95
2016-08-23T05:41:46.052Z,1024.92
2016-08-23T05:42:46.674Z,1024.9
2016-08-23T05:43:47.287Z,1024.92
2016-08-23T05:44:47.909Z,1024.95
2016-08-23T05:45:48.536Z,1024.95
2016-08-23T05:46:49.163Z,1024.95
2016-08-23T05:47:49.792Z,1024.94
2016-08-23T05:48:50.422Z,1024.95
2016-08-23T05:49:51.051Z,1024.99
2016-08-23T05:50:51.679Z,1025.03
2016-08-23T05:51:52.319Z,1025.04
2016-08-23T05:52:52.943Z,1025.05
2016-08-23T05:53:53.565Z,1025.14
2016-08-23T05:54:54.181Z,1025.12
2016-08-23T05:55:54.798Z,1025.14
2016-08-23T05:56:55.429Z,1025.16
2016-08-23T05:57:56.045Z,1025.13
2016-08-23T05:58:56.669Z,1025.2
2016-08-23T05:59:57.281Z,1025.15
2016-08-23T06:00:57.913Z,1025.24
2016-08-23T06:01:58.534Z,1025.19
2016-08-23T06:02:59.156Z,1025.22
2016-08-23T06:03:59.780Z,1025.21
2016-08-23T06:05:00.400Z,1025.19
2016-08-23T06:06:01.024Z,1025.22
2016-08-23T06:07:01.643Z,1025.22
2016-08-23T06:08:02.268Z,1025.26
2016-08-23T06:09:02.886Z,1025.27
2016-08-23T06:10:03.509Z,1025.3
2016-08-23T06:11:04.127Z,1025.32
2016-08-23T06:12:04.757Z,1025.33
2016-08-23T06:13:05.378Z,1025.27
2016-08-23T06:14:06.011Z,1025.35
2016-08-23T06:15:06.632Z,1025.35
2016-08-23T06:16:07.254Z,1025.32
2016-08-23T06:17:07.873Z,1025.36
2016-08-23T06:18:08.501Z,1025.4
2016-08-23T06:19:09.115Z,1025.41
2016-08-23T06:20:09.736Z,1025.44
2016-08-23T06:21:10.367Z,1025.42
2016-08-23T06:22:11.087Z,1025.47
2016-08-23T06:23:11.712Z,1025.51
2016-08-23T06:24:12.331Z,1025.5
2016-08-23T06:25:12.953Z,1025.49
2016-08-23T06:26:13.569Z,1025.47
2016-08-23T06:27:14.208Z,1025.47
2016-08-23T06:28:14.827Z,1025.5
2016-08-23T06:29:15.449Z,1025.53
2016-08-23T06:30:16.086Z,1025.57
2016-08-23T06:31:16.707Z,1025.53
2016-08-23T06:32:17.327Z,1025.56
2016-08-23T06:33:17.953Z,1025.57
2016-08-23T06:34:18.582Z,1025.57
2016-08-23T06:35:19.215Z,1025.57
2016-08-23T06:36:19.836Z,1025.57
2016-08-23T06:37:20.577Z,1025.59
2016-08-23T06:38:21.194Z,1025.62
2016-08-23T06:39:21.815Z,1025.61
2016-08-23T06:40:22.449Z,1025.63
2016-08-23T06:41:23.063Z,1025.65
2016-08-23T06:42:23.686Z,1025.66
2016-08-23T06:43:24.314Z,1025.68
2016-08-23T06:44:24.963Z,1025.71
2016-08-23T06:45:25.592Z,1025.7
2016-08-23T06:46:26.214Z,1025.72
2016-08-23T06:47:26.839Z,1025.69
2016-08-23T06:48:27.469Z,1025.76
2016-08-23T06:49:28.081Z,1025.72
2016-08-23T06:50:28.739Z,1025.71
2016-08-23T06:51:29.382Z,1025.76
2016-08-23T06:52:30.004Z,1025.72
2016-08-23T06:53:30.622Z,1025.74
2016-08-23T06:54:31.245Z,1025.73
2016-08-23T06:55:31.866Z,1025.72
2016-08-23T06:56:32.490Z,1025.69
2016-08-23T06:57:33.109Z,1025.67
2016-08-23T06:58:33.750Z,1025.7
2016-08-23T06:59:34.368Z,1025.69
2016-08-23T07:00:34.998Z,1025.69
2016-08-23T07:01:35.633Z,1025.7
2016-08-23T07:02:36.264Z,1025.68
2016-08-23T07:03:36.902Z,1025.66
2016-08-23T07:04:37.522Z,1025.7
2016-08-23T07:05:38.144Z,1025.67
2016-08-23T07:06:38.758Z,1025.67
2016-08-23T07:07:39.385Z,1025.67
2016-08-23T07:08:40.033Z,1025.68
2016-08-23T07:09:40.660Z,1025.71
2016-08-23T07:10:41.303Z,1025.72
2016-08-23T07:11:41.926Z,1025.73
2016-08-23T07:12:42.543Z,1025.69
2016-08-23T07:13:43.162Z,1025.78
2016-08-23T07:14:43.785Z,1025.78
2016-08-23T07:15:44.410Z,1025.75
2016-08-23T07:16:45.028Z,1025.72
2016-08-23T07:17:45.652Z,1025.7
2016-08-23T07:18:46.270Z,1025.76
2016-08-23T07:19:46.899Z,1025.75
2016-08-23T07:20:47.518Z,1025.75
2016-08-23T07:21:48.140Z,1025.73
2016-08-23T07:22:48.776Z,1025.75
2016-08-23T07:23:49.418Z,1025.75
2016-08-23T07:24:50.045Z,1025.71
2016-08-23T07:25:50.668Z,1025.71
2016-08-23T07:26:51.285Z,1025.7
2016-08-23T07:27:51.921Z,1025.74
2016-08-23T07:28:52.543Z,1025.8
2016-08-23T07:29:53.170Z,1025.76
2016-08-23T07:30:53.784Z,1025.78
2016-08-23T07:31:54.407Z,1025.77
2016-08-23T07:32:55.030Z,1025.8
2016-08-23T07:33:55.650Z,1025.74
2016-08-23T07:34:56.271Z,1025.75
2016-08-23T07:35:56.893Z,1025.75
2016-08-23T07:36:57.525Z,1025.77
2016-08-23T07:37:58.139Z,1025.78
2016-08-23T07:38:58.757Z,1025.83
2016-08-23T07:39:59.381Z,1025.82
2016-08-23T07:41:00.015Z,1025.79
2016-08-23T07:42:00.651Z,1025.79
2016-08-23T07:43:01.301Z,1025.84
2016-08-23T07:44:01.936Z,1025.85
2016-08-23T07:45:02.551Z,1025.87
2016-08-23T07:46:03.173Z,1025.88
2016-08-23T07:47:03.802Z,1025.84
2016-08-23T07:48:04.425Z,1025.85
2016-08-23T07:49:05.043Z,1025.87
2016-08-23T07:50:05.672Z,1025.87
2016-08-23T07:51:06.290Z,1025.86
2016-08-23T07:52:06.911Z,1025.85
2016-08-23T07:53:07.533Z,1025.85
2016-08-23T07:54:08.153Z,1025.84
2016-08-23T07:55:08.781Z,1025.83
2016-08-23T07:56:09.412Z,1025.84
2016-08-23T07:57:10.038Z,1025.89
2016-08-23T07:58:10.663Z,1025.88
2016-08-23T07:59:11.293Z,1025.85
2016-08-23T08:00:11.915Z,1025.81
2016-08-23T08:01:12.539Z,1025.79
2016-08-23T08:02:13.207Z,1025.77
2016-08-23T08:03:13.839Z,1025.79
2016-08-23T08:04:14.462Z,1025.81
2016-08-23T08:05:15.083Z,1025.79
2016-08-23T08:06:15.747Z,1025.78
2016-08-23T08:07:16.600Z,1025.82
2016-08-23T08:08:17.795Z,1025.84
2016-08-23T08:09:18.431Z,1025.86
2016-08-23T08:10:19.057Z,1025.88
2016-08-23T08:11:19.693Z,1025.87
2016-08-23T08:12:20.313Z,1025.93
2016-08-23T08:13:20.930Z,1025.91
2016-08-23T08:14:21.558Z,1025.9
2016-08-23T08:15:22.184Z,1025.93
2016-08-23T08:16:22.859Z,1025.87
2016-08-23T08:17:23.484Z,1025.88
2016-08-23T08:18:24.108Z,1025.87
2016-08-23T08:19:24.737Z,1025.9
2016-08-23T08:20:25.356Z,1025.88
2016-08-23T08:21:25.977Z,1025.89
2016-08-23T08:22:26.620Z,1025.88
2016-08-23T08:23:27.250Z,1025.93
2016-08-23T08:24:27.871Z,1025.92
2016-08-23T08:25:28.489Z,1025.97
2016-08-23T08:26:29.127Z,1025.94
2016-08-23T08:27:29.764Z,1025.99
2016-08-23T08:28:30.390Z,1026.04
2016-08-23T08:29:31.022Z,1026.04
2016-08-23T08:30:31.652Z,1026.07
2016-08-23T08:31:32.272Z,1026.09
2016-08-23T08:32:32.894Z,1026.02
2016-08-23T08:33:33.516Z,1026
2016-08-23T08:34:34.288Z,1026.01
2016-08-23T08:35:34.759Z,1026.02
2016-08-23T08:36:35.382Z,1026.02
2016-08-23T08:37:36.087Z,1026.06
2016-08-23T08:38:36.712Z,1026.02
2016-08-23T08:39:37.333Z,1026.08
2016-08-23T08:40:37.968Z,1026.04
2016-08-23T08:41:38.591Z,1026.05
2016-08-23T08:42:39.218Z,1026.03
2016-08-23T08:43:39.843Z,1026.02
2016-08-23T08:44:40.466Z,1026.03
2016-08-23T08:45:41.087Z,1026.09
2016-08-23T08:46:41.723Z,1026.05
2016-08-23T08:47:42.359Z,1026.08
2016-08-23T08:48:42.982Z,1026.08
2016-08-23T08:49:43.605Z,1026.11
2016-08-23T08:50:44.229Z,1026.13
2016-08-23T08:51:44.854Z,1026.1
2016-08-23T08:52:45.471Z,1026.08
2016-08-23T08:53:46.090Z,1026.1
2016-08-23T08:54:46.716Z,1026.1
2016-08-23T08:55:47.339Z,1026.11
2016-08-23T08:56:47.965Z,1026.06
2016-08-23T08:57:48.588Z,1026.09
2016-08-23T08:58:49.207Z,1026.05
2016-08-23T08:59:49.830Z,1026.07
2016-08-23T09:00:50.647Z,1026.17
2016-08-23T09:01:51.070Z,1026.18
2016-08-23T09:02:51.689Z,1026.21
2016-08-23T09:03:52.310Z,1026.22
2016-08-23T09:04:52.928Z,1026.22
2016-08-23T09:05:53.553Z,1026.25
2016-08-23T09:06:54.178Z,1026.28
2016-08-23T09:07:54.800Z,1026.24
2016-08-23T09:08:55.421Z,1026.26
2016-08-23T09:09:56.041Z,1026.22
2016-08-23T09:10:56.669Z,1026.23
2016-08-23T09:11:57.305Z,1026.18
2016-08-23T09:12:57.928Z,1026.2
2016-08-23T09:13:58.549Z,1026.21
2016-08-23T09:14:59.171Z,1026.14
2016-08-23T09:15:59.788Z,1026.19
2016-08-23T09:17:00.415Z,1026.18
2016-08-23T09:18:01.037Z,1026.16
2016-08-23T09:19:01.658Z,1026.18
2016-08-23T09:20:02.284Z,1026.16
2016-08-23T09:21:02.902Z,1026.14
2016-08-23T09:22:03.523Z,1026.1
2016-08-23T09:23:04.149Z,1026.1
2016-08-23T09:24:04.788Z,1026.11
2016-08-23T09:25:05.406Z,1026.12
2016-08-23T09:26:06.030Z,1026.13
2016-08-23T09:27:06.654Z,1026.14
2016-08-23T09:28:07.282Z,1026.15
2016-08-23T09:29:07.926Z,1026.17
2016-08-23T09:30:08.547Z,1026.13
2016-08-23T09:31:09.173Z,1026.16
2016-08-23T09:32:09.791Z,1026.11
2016-08-23T09:33:10.418Z,1026.13
2016-08-23T09:34:11.068Z,1026.19
2016-08-23T09:35:11.689Z,1026.14
2016-08-23T09:36:12.311Z,1026.21
2016-08-23T09:37:12.948Z,1026.19
2016-08-23T09:38:13.627Z,1026.16
2016-08-23T09:39:14.245Z,1026.16
2016-08-23T09:40:14.869Z,1026.17
2016-08-23T09:41:15.491Z,1026.2
2016-08-23T09:42:16.119Z,1026.21
2016-08-23T09:43:16.763Z,1026.23
2016-08-23T09:44:17.389Z,1026.23
2016-08-23T09:45:18.030Z,1026.23
2016-08-23T09:46:18.670Z,1026.21
2016-08-23T09:47:19.309Z,1026.28
2016-08-23T09:48:19.936Z,1026.27
2016-08-23T09:49:20.583Z,1026.31
2016-08-23T09:50:21.177Z,1026.33
2016-08-23T09:51:21.803Z,1026.32
2016-08-23T09:52:22.412Z,1026.27
2016-08-23T09:53:23.031Z,1026.29
2016-08-23T09:54:23.658Z,1026.33
2016-08-23T09:55:24.284Z,1026.32
2016-08-23T09:56:24.903Z,1026.33
2016-08-23T09:57:25.529Z,1026.3
2016-08-23T09:58:26.160Z,1026.29
2016-08-23T09:59:26.794Z,1026.29
2016-08-23T10:00:27.418Z,1026.28
2016-08-23T10:01:28.045Z,1026.3
2016-08-23T10:02:28.664Z,1026.31
2016-08-23T10:03:29.308Z,1026.3
2016-08-23T10:04:29.932Z,1026.29
2016-08-23T10:05:30.551Z,1026.34
2016-08-23T10:06:31.184Z,1026.29
2016-08-23T10:07:31.807Z,1026.32
2016-08-23T10:08:32.445Z,1026.31
2016-08-23T10:09:33.069Z,1026.3
2016-08-23T10:10:33.696Z,1026.33
2016-08-23T10:11:34.316Z,1026.34
2016-08-23T10:12:34.937Z,1026.36
2016-08-23T10:13:35.559Z,1026.33
2016-08-23T10:14:36.218Z,1026.33
2016-08-23T10:15:36.836Z,1026.36
2016-08-23T10:16:37.460Z,1026.35
2016-08-23T10:17:38.086Z,1026.32
2016-08-23T10:18:38.724Z,1026.34
2016-08-23T10:19:39.346Z,1026.35
2016-08-23T10:20:39.964Z,1026.35
2016-08-23T10:21:40.589Z,1026.32
2016-08-23T10:22:41.209Z,1026.27
2016-08-23T10:23:41.852Z,1026.29
2016-08-23T10:24:42.493Z,1026.27
2016-08-23T10:25:43.124Z,1026.26
2016-08-23T10:26:43.739Z,1026.28
2016-08-23T10:27:44.361Z,1026.3
2016-08-23T10:28:44.990Z,1026.3
2016-08-23T10:29:45.615Z,1026.27
2016-08-23T10:30:46.236Z,1026.25
2016-08-23T10:31:46.862Z,1026.24
2016-08-23T10:32:47.567Z,1026.22
2016-08-23T10:33:48.189Z,1026.22
2016-08-23T10:34:48.811Z,1026.21
2016-08-23T10:35:49.438Z,1026.2
2016-08-23T10:36:50.067Z,1026.17
2016-08-23T10:37:50.678Z,1026.18
2016-08-23T10:38:51.355Z,1026.14
2016-08-23T10:39:52.023Z,1026.15
2016-08-23T10:40:52.650Z,1026.12
2016-08-23T10:41:53.270Z,1026.16
2016-08-23T10:42:53.940Z,1026.18
2016-08-23T10:43:54.565Z,1026.17
2016-08-23T10:44:55.188Z,1026.16
2016-08-23T10:45:55.818Z,1026.15
2016-08-23T10:46:56.483Z,1026.17
2016-08-23T10:47:57.107Z,1026.21
2016-08-23T10:48:57.730Z,1026.26
2016-08-23T10:49:58.390Z,1026.2
2016-08-23T10:50:59.058Z,1026.22
2016-08-23T10:51:59.678Z,1026.24
2016-08-23T10:53:00.424Z,1026.27
2016-08-23T10:54:01.114Z,1026.26
2016-08-23T10:55:01.751Z,1026.28
2016-08-23T10:56:02.371Z,1026.27
2016-08-23T10:57:02.994Z,1026.29
2016-08-23T10:58:03.628Z,1026.32
2016-08-23T10:59:04.247Z,1026.32
2016-08-23T11:00:04.863Z,1026.29
2016-08-23T11:01:05.486Z,1026.32
2016-08-23T11:02:06.111Z,1026.29
2016-08-23T11:03:06.755Z,1026.31
2016-08-23T11:04:07.390Z,1026.31
2016-08-23T11:05:08.012Z,1026.31
2016-08-23T11:06:08.635Z,1026.35
2016-08-23T11:07:09.265Z,1026.26
2016-08-23T11:08:09.919Z,1026.3
2016-08-23T11:09:10.539Z,1026.3
2016-08-23T11:10:11.161Z,1026.28
2016-08-23T11:11:11.790Z,1026.3
2016-08-23T11:12:12.420Z,1026.28
2016-08-23T11:13:13.094Z,1026.35
2016-08-23T11:14:13.712Z,1026.33
2016-08-23T11:15:14.375Z,1026.34
2016-08-23T11:16:15.006Z,1026.35
2016-08-23T11:17:15.650Z,1026.38
2016-08-23T11:18:16.325Z,1026.38
2016-08-23T11:19:17.009Z,1026.35
2016-08-23T11:20:18.050Z,1026.37
2016-08-23T11:21:18.670Z,1026.34
2016-08-23T11:22:19.300Z,1026.35
2016-08-23T11:23:19.960Z,1026.31
2016-08-23T11:24:20.754Z,1026.33
2016-08-23T11:25:21.404Z,1026.34
2016-08-23T11:26:22.029Z,1026.32
2016-08-23T11:27:22.659Z,1026.39
2016-08-23T11:28:23.333Z,1026.34
2016-08-23T11:29:23.968Z,1026.36
2016-08-23T11:30:24.617Z,1026.39
2016-08-23T11:31:25.273Z,1026.37
2016-08-23T11:32:25.909Z,1026.39
2016-08-23T11:33:26.545Z,1026.38
2016-08-23T11:34:27.178Z,1026.39
2016-08-23T11:35:27.819Z,1026.41
2016-08-23T11:36:28.487Z,1026.4
2016-08-23T11:37:29.127Z,1026.41
2016-08-23T11:38:30.657Z,1026.42
2016-08-23T11:39:31.282Z,1026.4
2016-08-23T11:40:31.903Z,1026.41
2016-08-23T11:41:32.535Z,1026.4
2016-08-23T11:42:33.165Z,1026.38
2016-08-23T11:43:33.790Z,1026.4
2016-08-23T11:44:34.612Z,1026.37
2016-08-23T11:45:35.252Z,1026.35
2016-08-23T11:46:35.875Z,1026.36
2016-08-23T11:47:36.499Z,1026.44
2016-08-23T11:48:37.123Z,1026.42
2016-08-23T11:49:37.740Z,1026.41
2016-08-23T11:50:38.369Z,1026.43
2016-08-23T11:51:38.986Z,1026.4
2016-08-23T11:52:39.606Z,1026.46
2016-08-23T11:53:40.226Z,1026.41
2016-08-23T11:54:40.856Z,1026.43
2016-08-23T11:55:41.516Z,1026.43
2016-08-23T11:56:42.128Z,1026.42
2016-08-23T11:57:42.761Z,1026.4
2016-08-23T11:58:43.388Z,1026.4
2016-08-23T11:59:44.448Z,1026.43
2016-08-23T12:00:46.471Z,1026.38
2016-08-23T12:01:47.163Z,1026.41
2016-08-23T12:02:47.876Z,1026.38
2016-08-23T12:03:48.569Z,1026.44
2016-08-23T12:04:49.305Z,1026.41
2016-08-23T12:05:49.931Z,1026.41
2016-08-23T12:06:50.559Z,1026.39
2016-08-23T12:07:51.229Z,1026.44
2016-08-23T12:08:51.898Z,1026.45
2016-08-23T12:09:52.557Z,1026.42
2016-08-23T12:10:53.194Z,1026.43
2016-08-23T12:11:53.814Z,1026.43
2016-08-23T12:12:54.437Z,1026.45
2016-08-23T12:13:55.065Z,1026.45
2016-08-23T12:14:55.689Z,1026.47
2016-08-23T12:15:56.304Z,1026.44